sensor_id;sensor_type;location;lat;lon;timestamp;P1;durP1;ratioP1;P2;durP2;ratioP2
10110;SDS011;5095;49.796;9.934;2023-07-30T00:01:38;5.43;;;2.30;;
10110;SDS011;5095;49.796;9.934;2023-07-30T00:04:04;4.90;;;2.27;;
10110;SDS011;5095;49.796;9.934;2023-07-30T00:06:30;2.10;;;1.87;;
10110;SDS011;5095;49.796;9.934;2023-07-30T00:08:56;3.10;;;2.20;;
10110;SDS011;5095;49.796;9.934;2023-07-30T00:11:22;4.17;;;2.37;;
10110;SDS011;5095;49.796;9.934;2023-07-30T00:13:48;3.27;;;2.27;;
10110;SDS011;5095;49.796;9.934;2023-07-30T00:16:14;2.07;;;1.80;;
10110;SDS011;5095;49.796;9.934;2023-07-30T00:18:40;1.67;;;1.57;;
10110;SDS011;5095;49.796;9.934;2023-07-30T00:21:06;1.90;;;1.37;;
10110;SDS011;5095;49.796;9.934;2023-07-30T00:23:32;4.20;;;1.40;;
10110;SDS011;5095;49.796;9.934;2023-07-30T00:25:58;2.33;;;1.57;;
10110;SDS011;5095;49.796;9.934;2023-07-30T00:28:24;1.90;;;1.40;;
10110;SDS011;5095;49.796;9.934;2023-07-30T00:30:50;1.40;;;1.10;;
10110;SDS011;5095;49.796;9.934;2023-07-30T00:33:16;1.20;;;1.10;;
10110;SDS011;5095;49.796;9.934;2023-07-30T00:35:42;2.67;;;1.30;;
10110;SDS011;5095;49.796;9.934;2023-07-30T00:38:08;1.93;;;1.20;;
10110;SDS011;5095;49.796;9.934;2023-07-30T00:40:41;2.00;;;1.20;;
10110;SDS011;5095;49.796;9.934;2023-07-30T00:43:07;1.10;;;0.90;;
10110;SDS011;5095;49.796;9.934;2023-07-30T00:45:33;1.43;;;1.07;;
10110;SDS011;5095;49.796;9.934;2023-07-30T00:48:00;1.50;;;1.40;;
10110;SDS011;5095;49.796;9.934;2023-07-30T00:50:26;1.47;;;1.20;;
10110;SDS011;5095;49.796;9.934;2023-07-30T00:52:52;0.90;;;0.83;;
10110;SDS011;5095;49.796;9.934;2023-07-30T00:55:18;1.07;;;0.97;;
10110;SDS011;5095;49.796;9.934;2023-07-30T00:57:44;1.23;;;0.90;;
10110;SDS011;5095;49.796;9.934;2023-07-30T01:00:11;2.63;;;1.13;;
10110;SDS011;5095;49.796;9.934;2023-07-30T01:02:37;3.60;;;1.27;;
10110;SDS011;5095;49.796;9.934;2023-07-30T01:05:03;1.40;;;0.80;;
10110;SDS011;5095;49.796;9.934;2023-07-30T01:07:32;2.27;;;1.57;;
10110;SDS011;5095;49.796;9.934;2023-07-30T01:09:59;2.57;;;2.03;;
10110;SDS011;5095;49.796;9.934;2023-07-30T01:12:26;2.10;;;1.23;;
10110;SDS011;5095;49.796;9.934;2023-07-30T01:14:52;1.83;;;1.30;;
10110;SDS011;5095;49.796;9.934;2023-07-30T01:17:20;1.23;;;0.83;;
10110;SDS011;5095;49.796;9.934;2023-07-30T01:19:47;1.70;;;1.10;;
10110;SDS011;5095;49.796;9.934;2023-07-30T01:22:14;1.87;;;1.20;;
10110;SDS011;5095;49.796;9.934;2023-07-30T01:24:40;1.40;;;0.97;;
10110;SDS011;5095;49.796;9.934;2023-07-30T01:27:07;1.50;;;0.90;;
10110;SDS011;5095;49.796;9.934;2023-07-30T01:29:44;1.23;;;1.00;;
10110;SDS011;5095;49.796;9.934;2023-07-30T01:32:11;2.30;;;1.77;;
10110;SDS011;5095;49.796;9.934;2023-07-30T01:34:38;4.53;;;3.43;;
10110;SDS011;5095;49.796;9.934;2023-07-30T01:37:05;1.00;;;0.90;;
10110;SDS011;5095;49.796;9.934;2023-07-30T01:39:33;2.00;;;0.90;;
10110;SDS011;5095;49.796;9.934;2023-07-30T01:42:00;1.70;;;1.00;;
10110;SDS011;5095;49.796;9.934;2023-07-30T01:44:26;1.50;;;1.10;;
10110;SDS011;5095;49.796;9.934;2023-07-30T01:46:52;0.83;;;0.70;;
10110;SDS011;5095;49.796;9.934;2023-07-30T01:49:18;2.30;;;1.10;;
10110;SDS011;5095;49.796;9.934;2023-07-30T01:51:44;1.77;;;1.23;;
10110;SDS011;5095;49.796;9.934;2023-07-30T01:54:10;1.63;;;1.47;;
10110;SDS011;5095;49.796;9.934;2023-07-30T01:56:36;2.63;;;1.20;;
10110;SDS011;5095;49.796;9.934;2023-07-30T01:59:02;1.57;;;0.90;;
10110;SDS011;5095;49.796;9.934;2023-07-30T02:01:28;1.93;;;1.10;;
10110;SDS011;5095;49.796;9.934;2023-07-30T02:03:54;1.87;;;1.20;;
10110;SDS011;5095;49.796;9.934;2023-07-30T02:06:21;1.13;;;0.97;;
10110;SDS011;5095;49.796;9.934;2023-07-30T02:08:47;2.60;;;1.17;;
10110;SDS011;5095;49.796;9.934;2023-07-30T02:11:13;1.13;;;0.80;;
10110;SDS011;5095;49.796;9.934;2023-07-30T02:13:39;3.20;;;1.20;;
10110;SDS011;5095;49.796;9.934;2023-07-30T02:16:06;2.27;;;1.23;;
10110;SDS011;5095;49.796;9.934;2023-07-30T02:18:32;1.70;;;1.07;;
10110;SDS011;5095;49.796;9.934;2023-07-30T02:20:58;2.73;;;1.10;;
10110;SDS011;5095;49.796;9.934;2023-07-30T02:23:24;1.77;;;1.23;;
10110;SDS011;5095;49.796;9.934;2023-07-30T02:25:50;2.13;;;1.20;;
10110;SDS011;5095;49.796;9.934;2023-07-30T02:28:16;2.97;;;1.60;;
10110;SDS011;5095;49.796;9.934;2023-07-30T02:30:42;2.13;;;1.30;;
10110;SDS011;5095;49.796;9.934;2023-07-30T02:33:08;3.80;;;1.30;;
10110;SDS011;5095;49.796;9.934;2023-07-30T02:35:34;1.03;;;0.93;;
10110;SDS011;5095;49.796;9.934;2023-07-30T02:38:00;2.30;;;1.57;;
10110;SDS011;5095;49.796;9.934;2023-07-30T02:40:26;1.57;;;1.20;;
10110;SDS011;5095;49.796;9.934;2023-07-30T02:42:52;5.07;;;1.37;;
10110;SDS011;5095;49.796;9.934;2023-07-30T02:45:18;2.23;;;1.30;;
10110;SDS011;5095;49.796;9.934;2023-07-30T02:47:44;3.40;;;1.70;;
10110;SDS011;5095;49.796;9.934;2023-07-30T02:50:10;2.70;;;1.67;;
10110;SDS011;5095;49.796;9.934;2023-07-30T02:52:36;3.37;;;2.50;;
10110;SDS011;5095;49.796;9.934;2023-07-30T02:55:02;2.77;;;1.93;;
10110;SDS011;5095;49.796;9.934;2023-07-30T02:57:28;4.47;;;2.63;;
10110;SDS011;5095;49.796;9.934;2023-07-30T02:59:54;4.53;;;2.30;;
10110;SDS011;5095;49.796;9.934;2023-07-30T03:02:21;3.23;;;1.67;;
10110;SDS011;5095;49.796;9.934;2023-07-30T03:04:47;2.23;;;1.77;;
10110;SDS011;5095;49.796;9.934;2023-07-30T03:07:13;3.50;;;1.90;;
10110;SDS011;5095;49.796;9.934;2023-07-30T03:09:39;2.97;;;1.87;;
10110;SDS011;5095;49.796;9.934;2023-07-30T03:12:05;2.03;;;1.60;;
10110;SDS011;5095;49.796;9.934;2023-07-30T03:14:31;1.87;;;1.60;;
10110;SDS011;5095;49.796;9.934;2023-07-30T03:16:57;2.87;;;1.80;;
10110;SDS011;5095;49.796;9.934;2023-07-30T03:19:23;4.27;;;1.90;;
10110;SDS011;5095;49.796;9.934;2023-07-30T03:21:49;3.40;;;2.00;;
10110;SDS011;5095;49.796;9.934;2023-07-30T03:24:15;2.00;;;1.80;;
10110;SDS011;5095;49.796;9.934;2023-07-30T03:26:41;2.30;;;1.90;;
10110;SDS011;5095;49.796;9.934;2023-07-30T03:29:07;2.50;;;2.03;;
10110;SDS011;5095;49.796;9.934;2023-07-30T03:31:33;6.77;;;2.50;;
10110;SDS011;5095;49.796;9.934;2023-07-30T03:33:59;3.23;;;2.00;;
10110;SDS011;5095;49.796;9.934;2023-07-30T03:36:25;3.20;;;1.70;;
10110;SDS011;5095;49.796;9.934;2023-07-30T03:38:51;4.30;;;2.23;;
10110;SDS011;5095;49.796;9.934;2023-07-30T03:41:17;2.57;;;1.80;;
10110;SDS011;5095;49.796;9.934;2023-07-30T03:43:43;3.07;;;2.17;;
10110;SDS011;5095;49.796;9.934;2023-07-30T03:46:09;3.17;;;2.23;;
10110;SDS011;5095;49.796;9.934;2023-07-30T03:48:35;2.50;;;2.10;;
10110;SDS011;5095;49.796;9.934;2023-07-30T03:51:03;3.37;;;2.37;;
10110;SDS011;5095;49.796;9.934;2023-07-30T03:53:29;2.87;;;2.20;;
10110;SDS011;5095;49.796;9.934;2023-07-30T03:55:55;2.83;;;2.33;;
10110;SDS011;5095;49.796;9.934;2023-07-30T03:58:21;3.13;;;2.23;;
10110;SDS011;5095;49.796;9.934;2023-07-30T04:00:47;3.80;;;1.90;;
10110;SDS011;5095;49.796;9.934;2023-07-30T04:03:13;2.27;;;2.03;;
10110;SDS011;5095;49.796;9.934;2023-07-30T04:05:39;3.17;;;2.10;;
10110;SDS011;5095;49.796;9.934;2023-07-30T04:08:05;2.30;;;1.80;;
10110;SDS011;5095;49.796;9.934;2023-07-30T04:10:31;2.40;;;2.07;;
10110;SDS011;5095;49.796;9.934;2023-07-30T04:12:57;2.73;;;1.80;;
10110;SDS011;5095;49.796;9.934;2023-07-30T04:15:23;3.20;;;2.33;;
10110;SDS011;5095;49.796;9.934;2023-07-30T04:17:49;2.97;;;1.90;;
10110;SDS011;5095;49.796;9.934;2023-07-30T04:20:15;2.40;;;1.70;;
10110;SDS011;5095;49.796;9.934;2023-07-30T04:22:42;5.13;;;2.10;;
10110;SDS011;5095;49.796;9.934;2023-07-30T04:25:08;4.90;;;1.63;;
10110;SDS011;5095;49.796;9.934;2023-07-30T04:27:38;1.97;;;1.77;;
10110;SDS011;5095;49.796;9.934;2023-07-30T04:30:04;2.23;;;1.90;;
10110;SDS011;5095;49.796;9.934;2023-07-30T04:32:31;3.43;;;1.70;;
10110;SDS011;5095;49.796;9.934;2023-07-30T04:34:57;2.67;;;1.60;;
10110;SDS011;5095;49.796;9.934;2023-07-30T04:37:23;2.57;;;1.73;;
10110;SDS011;5095;49.796;9.934;2023-07-30T04:39:49;2.33;;;1.60;;
10110;SDS011;5095;49.796;9.934;2023-07-30T04:42:15;2.80;;;1.60;;
10110;SDS011;5095;49.796;9.934;2023-07-30T04:44:41;2.87;;;1.63;;
10110;SDS011;5095;49.796;9.934;2023-07-30T04:47:07;2.80;;;1.50;;
10110;SDS011;5095;49.796;9.934;2023-07-30T04:49:33;2.33;;;1.63;;
10110;SDS011;5095;49.796;9.934;2023-07-30T04:51:59;3.93;;;1.97;;
10110;SDS011;5095;49.796;9.934;2023-07-30T04:54:25;3.27;;;2.00;;
10110;SDS011;5095;49.796;9.934;2023-07-30T04:56:51;2.30;;;1.90;;
10110;SDS011;5095;49.796;9.934;2023-07-30T04:59:17;3.80;;;1.70;;
10110;SDS011;5095;49.796;9.934;2023-07-30T05:01:43;4.13;;;1.90;;
10110;SDS011;5095;49.796;9.934;2023-07-30T05:04:09;4.37;;;1.60;;
10110;SDS011;5095;49.796;9.934;2023-07-30T05:06:35;1.93;;;1.53;;
10110;SDS011;5095;49.796;9.934;2023-07-30T05:09:01;3.37;;;1.90;;
10110;SDS011;5095;49.796;9.934;2023-07-30T05:11:27;2.37;;;1.87;;
10110;SDS011;5095;49.796;9.934;2023-07-30T05:13:53;3.53;;;1.77;;
10110;SDS011;5095;49.796;9.934;2023-07-30T05:16:22;2.40;;;1.73;;
10110;SDS011;5095;49.796;9.934;2023-07-30T05:18:48;2.70;;;1.73;;
10110;SDS011;5095;49.796;9.934;2023-07-30T05:21:14;1.93;;;1.73;;
10110;SDS011;5095;49.796;9.934;2023-07-30T05:23:40;2.00;;;1.80;;
10110;SDS011;5095;49.796;9.934;2023-07-30T05:26:06;1.77;;;1.40;;
10110;SDS011;5095;49.796;9.934;2023-07-30T05:28:32;1.87;;;1.60;;
10110;SDS011;5095;49.796;9.934;2023-07-30T05:30:58;2.80;;;1.87;;
10110;SDS011;5095;49.796;9.934;2023-07-30T05:33:24;4.53;;;1.60;;
10110;SDS011;5095;49.796;9.934;2023-07-30T05:35:50;1.90;;;1.67;;
10110;SDS011;5095;49.796;9.934;2023-07-30T05:38:16;2.40;;;1.60;;
10110;SDS011;5095;49.796;9.934;2023-07-30T05:40:42;2.97;;;1.57;;
10110;SDS011;5095;49.796;9.934;2023-07-30T05:43:08;3.27;;;1.60;;
10110;SDS011;5095;49.796;9.934;2023-07-30T05:45:34;1.60;;;1.50;;
10110;SDS011;5095;49.796;9.934;2023-07-30T05:48:00;2.03;;;1.40;;
10110;SDS011;5095;49.796;9.934;2023-07-30T05:50:27;2.03;;;1.53;;
10110;SDS011;5095;49.796;9.934;2023-07-30T05:52:53;1.70;;;1.53;;
10110;SDS011;5095;49.796;9.934;2023-07-30T05:55:19;2.23;;;1.40;;
10110;SDS011;5095;49.796;9.934;2023-07-30T05:57:45;2.07;;;1.37;;
10110;SDS011;5095;49.796;9.934;2023-07-30T06:00:11;1.90;;;1.37;;
10110;SDS011;5095;49.796;9.934;2023-07-30T06:02:37;1.70;;;1.33;;
10110;SDS011;5095;49.796;9.934;2023-07-30T06:05:03;2.10;;;1.40;;
10110;SDS011;5095;49.796;9.934;2023-07-30T06:07:29;2.07;;;1.40;;
10110;SDS011;5095;49.796;9.934;2023-07-30T06:09:56;1.90;;;1.60;;
10110;SDS011;5095;49.796;9.934;2023-07-30T06:12:22;2.67;;;1.53;;
10110;SDS011;5095;49.796;9.934;2023-07-30T06:14:48;3.03;;;1.50;;
10110;SDS011;5095;49.796;9.934;2023-07-30T06:17:14;1.67;;;1.30;;
10110;SDS011;5095;49.796;9.934;2023-07-30T06:19:40;2.00;;;1.40;;
10110;SDS011;5095;49.796;9.934;2023-07-30T06:22:06;4.00;;;1.50;;
10110;SDS011;5095;49.796;9.934;2023-07-30T06:24:32;3.50;;;1.50;;
10110;SDS011;5095;49.796;9.934;2023-07-30T06:26:58;1.30;;;1.10;;
10110;SDS011;5095;49.796;9.934;2023-07-30T06:29:24;2.87;;;1.60;;
10110;SDS011;5095;49.796;9.934;2023-07-30T06:31:50;2.47;;;1.63;;
10110;SDS011;5095;49.796;9.934;2023-07-30T06:34:16;3.57;;;1.50;;
10110;SDS011;5095;49.796;9.934;2023-07-30T06:36:42;2.27;;;1.40;;
10110;SDS011;5095;49.796;9.934;2023-07-30T06:39:08;2.93;;;1.53;;
10110;SDS011;5095;49.796;9.934;2023-07-30T06:41:34;1.70;;;1.60;;
10110;SDS011;5095;49.796;9.934;2023-07-30T06:44:00;4.50;;;1.60;;
10110;SDS011;5095;49.796;9.934;2023-07-30T06:46:26;4.03;;;1.60;;
10110;SDS011;5095;49.796;9.934;2023-07-30T06:48:52;4.97;;;1.57;;
10110;SDS011;5095;49.796;9.934;2023-07-30T06:51:19;2.00;;;1.60;;
10110;SDS011;5095;49.796;9.934;2023-07-30T06:53:45;7.97;;;2.80;;
10110;SDS011;5095;49.796;9.934;2023-07-30T06:56:11;2.10;;;1.40;;
10110;SDS011;5095;49.796;9.934;2023-07-30T06:58:37;3.17;;;1.50;;
10110;SDS011;5095;49.796;9.934;2023-07-30T07:01:03;1.47;;;1.10;;
10110;SDS011;5095;49.796;9.934;2023-07-30T07:03:29;2.03;;;1.50;;
10110;SDS011;5095;49.796;9.934;2023-07-30T07:05:55;3.23;;;1.23;;
10110;SDS011;5095;49.796;9.934;2023-07-30T07:08:22;2.10;;;1.40;;
10110;SDS011;5095;49.796;9.934;2023-07-30T07:10:49;2.23;;;1.70;;
10110;SDS011;5095;49.796;9.934;2023-07-30T07:13:15;1.70;;;1.40;;
10110;SDS011;5095;49.796;9.934;2023-07-30T07:15:42;2.33;;;1.50;;
10110;SDS011;5095;49.796;9.934;2023-07-30T07:18:08;1.80;;;1.30;;
10110;SDS011;5095;49.796;9.934;2023-07-30T07:20:35;3.37;;;1.30;;
10110;SDS011;5095;49.796;9.934;2023-07-30T07:23:03;4.70;;;1.33;;
10110;SDS011;5095;49.796;9.934;2023-07-30T07:25:29;2.00;;;1.30;;
10110;SDS011;5095;49.796;9.934;2023-07-30T07:27:56;2.13;;;1.40;;
10110;SDS011;5095;49.796;9.934;2023-07-30T07:30:22;2.73;;;1.40;;
10110;SDS011;5095;49.796;9.934;2023-07-30T07:32:48;1.60;;;1.47;;
10110;SDS011;5095;49.796;9.934;2023-07-30T07:35:20;1.73;;;1.30;;
10110;SDS011;5095;49.796;9.934;2023-07-30T07:37:47;2.87;;;1.37;;
10110;SDS011;5095;49.796;9.934;2023-07-30T07:40:13;1.60;;;1.30;;
10110;SDS011;5095;49.796;9.934;2023-07-30T07:42:39;4.70;;;1.10;;
10110;SDS011;5095;49.796;9.934;2023-07-30T07:45:05;2.87;;;1.50;;
10110;SDS011;5095;49.796;9.934;2023-07-30T07:47:32;2.80;;;1.40;;
10110;SDS011;5095;49.796;9.934;2023-07-30T07:49:58;2.60;;;1.30;;
10110;SDS011;5095;49.796;9.934;2023-07-30T07:52:24;1.67;;;1.23;;
10110;SDS011;5095;49.796;9.934;2023-07-30T07:54:50;1.63;;;1.20;;
10110;SDS011;5095;49.796;9.934;2023-07-30T07:57:16;1.53;;;1.07;;
10110;SDS011;5095;49.796;9.934;2023-07-30T07:59:42;1.40;;;1.30;;
10110;SDS011;5095;49.796;9.934;2023-07-30T08:02:10;3.30;;;1.30;;
10110;SDS011;5095;49.796;9.934;2023-07-30T08:04:37;2.97;;;1.10;;
10110;SDS011;5095;49.796;9.934;2023-07-30T08:07:03;2.40;;;1.30;;
10110;SDS011;5095;49.796;9.934;2023-07-30T08:09:29;1.20;;;1.10;;
10110;SDS011;5095;49.796;9.934;2023-07-30T08:11:55;5.00;;;1.40;;
10110;SDS011;5095;49.796;9.934;2023-07-30T08:14:21;3.50;;;1.10;;
10110;SDS011;5095;49.796;9.934;2023-07-30T08:16:47;1.53;;;1.37;;
10110;SDS011;5095;49.796;9.934;2023-07-30T08:19:13;3.53;;;1.30;;
10110;SDS011;5095;49.796;9.934;2023-07-30T08:21:39;1.33;;;1.23;;
10110;SDS011;5095;49.796;9.934;2023-07-30T08:24:05;2.63;;;1.50;;
10110;SDS011;5095;49.796;9.934;2023-07-30T08:26:32;2.23;;;1.20;;
10110;SDS011;5095;49.796;9.934;2023-07-30T08:28:58;1.80;;;1.10;;
10110;SDS011;5095;49.796;9.934;2023-07-30T08:31:24;1.70;;;1.27;;
10110;SDS011;5095;49.796;9.934;2023-07-30T08:33:50;1.27;;;0.90;;
10110;SDS011;5095;49.796;9.934;2023-07-30T08:36:16;3.27;;;1.13;;
10110;SDS011;5095;49.796;9.934;2023-07-30T08:38:42;1.40;;;0.87;;
10110;SDS011;5095;49.796;9.934;2023-07-30T08:41:08;1.47;;;1.17;;
10110;SDS011;5095;49.796;9.934;2023-07-30T08:43:34;1.00;;;0.90;;
10110;SDS011;5095;49.796;9.934;2023-07-30T08:46:00;2.97;;;1.10;;
10110;SDS011;5095;49.796;9.934;2023-07-30T08:48:27;1.30;;;1.20;;
10110;SDS011;5095;49.796;9.934;2023-07-30T08:50:56;2.80;;;1.10;;
10110;SDS011;5095;49.796;9.934;2023-07-30T08:53:24;2.47;;;1.17;;
10110;SDS011;5095;49.796;9.934;2023-07-30T08:55:51;1.10;;;1.00;;
10110;SDS011;5095;49.796;9.934;2023-07-30T08:58:17;0.87;;;0.80;;
10110;SDS011;5095;49.796;9.934;2023-07-30T09:00:43;1.53;;;1.17;;
10110;SDS011;5095;49.796;9.934;2023-07-30T09:03:10;0.90;;;0.80;;
10110;SDS011;5095;49.796;9.934;2023-07-30T09:05:40;1.83;;;0.93;;
10110;SDS011;5095;49.796;9.934;2023-07-30T09:08:06;2.20;;;1.07;;
10110;SDS011;5095;49.796;9.934;2023-07-30T09:10:34;1.23;;;1.00;;
10110;SDS011;5095;49.796;9.934;2023-07-30T09:13:01;3.60;;;1.10;;
10110;SDS011;5095;49.796;9.934;2023-07-30T09:15:34;1.97;;;1.10;;
10110;SDS011;5095;49.796;9.934;2023-07-30T09:18:02;3.35;;;1.25;;
10110;SDS011;5095;49.796;9.934;2023-07-30T09:20:36;3.33;;;1.60;;
10110;SDS011;5095;49.796;9.934;2023-07-30T09:23:02;1.40;;;1.20;;
10110;SDS011;5095;49.796;9.934;2023-07-30T09:25:28;4.73;;;1.80;;
10110;SDS011;5095;49.796;9.934;2023-07-30T09:27:54;4.37;;;1.00;;
10110;SDS011;5095;49.796;9.934;2023-07-30T09:30:25;0.90;;;0.83;;
10110;SDS011;5095;49.796;9.934;2023-07-30T09:32:52;2.13;;;0.83;;
10110;SDS011;5095;49.796;9.934;2023-07-30T09:35:19;2.77;;;1.10;;
10110;SDS011;5095;49.796;9.934;2023-07-30T09:37:45;3.13;;;0.80;;
10110;SDS011;5095;49.796;9.934;2023-07-30T09:40:12;1.50;;;0.90;;
10110;SDS011;5095;49.796;9.934;2023-07-30T09:42:38;1.70;;;1.03;;
10110;SDS011;5095;49.796;9.934;2023-07-30T09:45:20;1.37;;;1.10;;
10110;SDS011;5095;49.796;9.934;2023-07-30T09:47:47;2.20;;;1.60;;
10110;SDS011;5095;49.796;9.934;2023-07-30T09:50:13;1.23;;;1.10;;
10110;SDS011;5095;49.796;9.934;2023-07-30T09:52:40;1.57;;;1.30;;
10110;SDS011;5095;49.796;9.934;2023-07-30T09:55:07;2.43;;;1.20;;
10110;SDS011;5095;49.796;9.934;2023-07-30T09:57:33;1.30;;;1.20;;
10110;SDS011;5095;49.796;9.934;2023-07-30T09:59:59;1.47;;;1.30;;
10110;SDS011;5095;49.796;9.934;2023-07-30T10:02:26;2.13;;;1.10;;
10110;SDS011;5095;49.796;9.934;2023-07-30T10:04:56;1.83;;;1.20;;
10110;SDS011;5095;49.796;9.934;2023-07-30T10:07:23;2.07;;;1.10;;
10110;SDS011;5095;49.796;9.934;2023-07-30T10:09:51;1.90;;;1.27;;
10110;SDS011;5095;49.796;9.934;2023-07-30T10:12:20;2.07;;;1.20;;
10110;SDS011;5095;49.796;9.934;2023-07-30T10:14:47;1.07;;;0.90;;
10110;SDS011;5095;49.796;9.934;2023-07-30T10:17:13;0.80;;;0.80;;
10110;SDS011;5095;49.796;9.934;2023-07-30T10:19:39;1.90;;;1.23;;
10110;SDS011;5095;49.796;9.934;2023-07-30T10:25:00;1.20;;;1.07;;
10110;SDS011;5095;49.796;9.934;2023-07-30T10:27:27;2.33;;;1.27;;
10110;SDS011;5095;49.796;9.934;2023-07-30T10:32:42;1.70;;;1.40;;
10110;SDS011;5095;49.796;9.934;2023-07-30T10:35:08;4.20;;;1.30;;
10110;SDS011;5095;49.796;9.934;2023-07-30T10:37:34;1.53;;;1.00;;
10110;SDS011;5095;49.796;9.934;2023-07-30T10:40:00;0.87;;;0.87;;
10110;SDS011;5095;49.796;9.934;2023-07-30T10:42:33;2.37;;;1.70;;
10110;SDS011;5095;49.796;9.934;2023-07-30T10:44:59;1.77;;;1.20;;
10110;SDS011;5095;49.796;9.934;2023-07-30T10:47:26;2.47;;;1.30;;
10110;SDS011;5095;49.796;9.934;2023-07-30T10:49:53;2.20;;;1.60;;
10110;SDS011;5095;49.796;9.934;2023-07-30T10:52:24;1.80;;;1.40;;
10110;SDS011;5095;49.796;9.934;2023-07-30T10:54:59;1.20;;;1.10;;
10110;SDS011;5095;49.796;9.934;2023-07-30T10:57:29;3.67;;;1.50;;
10110;SDS011;5095;49.796;9.934;2023-07-30T10:59:56;2.23;;;1.17;;
10110;SDS011;5095;49.796;9.934;2023-07-30T11:02:22;1.60;;;1.30;;
10110;SDS011;5095;49.796;9.934;2023-07-30T11:04:48;1.63;;;1.37;;
10110;SDS011;5095;49.796;9.934;2023-07-30T11:07:18;1.87;;;1.27;;
10110;SDS011;5095;49.796;9.934;2023-07-30T11:09:44;1.57;;;1.27;;
10110;SDS011;5095;49.796;9.934;2023-07-30T11:12:10;1.73;;;1.30;;
10110;SDS011;5095;49.796;9.934;2023-07-30T11:14:36;2.00;;;1.50;;
10110;SDS011;5095;49.796;9.934;2023-07-30T11:17:02;4.13;;;1.57;;
10110;SDS011;5095;49.796;9.934;2023-07-30T11:19:29;2.97;;;1.37;;
10110;SDS011;5095;49.796;9.934;2023-07-30T11:21:55;1.75;;;1.55;;
10110;SDS011;5095;49.796;9.934;2023-07-30T11:24:22;2.87;;;1.60;;
10110;SDS011;5095;49.796;9.934;2023-07-30T11:27:01;3.20;;;1.60;;
10110;SDS011;5095;49.796;9.934;2023-07-30T11:29:28;2.17;;;1.50;;
10110;SDS011;5095;49.796;9.934;2023-07-30T11:31:57;3.30;;;1.50;;
10110;SDS011;5095;49.796;9.934;2023-07-30T11:34:28;1.67;;;1.10;;
10110;SDS011;5095;49.796;9.934;2023-07-30T11:36:54;1.47;;;1.00;;
10110;SDS011;5095;49.796;9.934;2023-07-30T11:39:21;2.10;;;1.23;;
10110;SDS011;5095;49.796;9.934;2023-07-30T11:41:48;2.00;;;1.10;;
10110;SDS011;5095;49.796;9.934;2023-07-30T11:44:30;1.67;;;1.07;;
10110;SDS011;5095;49.796;9.934;2023-07-30T11:46:56;1.33;;;0.90;;
10110;SDS011;5095;49.796;9.934;2023-07-30T11:49:23;1.43;;;0.90;;
10110;SDS011;5095;49.796;9.934;2023-07-30T11:51:49;1.87;;;0.80;;
10110;SDS011;5095;49.796;9.934;2023-07-30T11:54:22;1.23;;;0.90;;
10110;SDS011;5095;49.796;9.934;2023-07-30T11:56:53;2.50;;;0.90;;
10110;SDS011;5095;49.796;9.934;2023-07-30T11:59:20;2.13;;;1.10;;
10110;SDS011;5095;49.796;9.934;2023-07-30T12:01:47;0.93;;;0.60;;
10110;SDS011;5095;49.796;9.934;2023-07-30T12:04:13;0.87;;;0.77;;
10110;SDS011;5095;49.796;9.934;2023-07-30T12:06:40;1.07;;;0.77;;
10110;SDS011;5095;49.796;9.934;2023-07-30T12:09:12;1.17;;;0.63;;
10110;SDS011;5095;49.796;9.934;2023-07-30T12:11:52;0.50;;;0.50;;
10110;SDS011;5095;49.796;9.934;2023-07-30T12:14:19;1.20;;;0.80;;
10110;SDS011;5095;49.796;9.934;2023-07-30T12:16:45;2.57;;;1.80;;
10110;SDS011;5095;49.796;9.934;2023-07-30T12:19:11;0.93;;;0.80;;
10110;SDS011;5095;49.796;9.934;2023-07-30T12:21:37;4.07;;;0.90;;
10110;SDS011;5095;49.796;9.934;2023-07-30T12:24:03;3.17;;;0.97;;
10110;SDS011;5095;49.796;9.934;2023-07-30T12:26:29;1.63;;;0.80;;
10110;SDS011;5095;49.796;9.934;2023-07-30T12:28:56;0.97;;;0.80;;
10110;SDS011;5095;49.796;9.934;2023-07-30T12:31:22;1.13;;;0.90;;
10110;SDS011;5095;49.796;9.934;2023-07-30T12:33:48;0.70;;;0.70;;
10110;SDS011;5095;49.796;9.934;2023-07-30T12:36:14;1.33;;;0.70;;
10110;SDS011;5095;49.796;9.934;2023-07-30T12:38:40;1.40;;;0.90;;
10110;SDS011;5095;49.796;9.934;2023-07-30T12:41:06;1.37;;;1.10;;
10110;SDS011;5095;49.796;9.934;2023-07-30T12:43:32;1.00;;;0.80;;
10110;SDS011;5095;49.796;9.934;2023-07-30T12:45:58;0.87;;;0.60;;
10110;SDS011;5095;49.796;9.934;2023-07-30T12:48:24;1.27;;;0.70;;
10110;SDS011;5095;49.796;9.934;2023-07-30T12:50:50;0.93;;;0.73;;
10110;SDS011;5095;49.796;9.934;2023-07-30T12:53:16;1.47;;;0.73;;
10110;SDS011;5095;49.796;9.934;2023-07-30T12:55:41;1.73;;;0.80;;
10110;SDS011;5095;49.796;9.934;2023-07-30T12:58:07;1.40;;;0.90;;
10110;SDS011;5095;49.796;9.934;2023-07-30T13:00:33;1.57;;;1.10;;
10110;SDS011;5095;49.796;9.934;2023-07-30T13:03:00;2.93;;;0.83;;
10110;SDS011;5095;49.796;9.934;2023-07-30T13:05:27;1.35;;;0.90;;
10110;SDS011;5095;49.796;9.934;2023-07-30T13:07:53;0.90;;;0.70;;
10110;SDS011;5095;49.796;9.934;2023-07-30T13:10:19;1.48;;;0.80;;
10110;SDS011;5095;49.796;9.934;2023-07-30T13:12:45;1.23;;;0.70;;
10110;SDS011;5095;49.796;9.934;2023-07-30T13:15:11;1.08;;;0.82;;
10110;SDS011;5095;49.796;9.934;2023-07-30T13:17:37;4.43;;;0.68;;
10110;SDS011;5095;49.796;9.934;2023-07-30T13:20:04;1.25;;;0.85;;
10110;SDS011;5095;49.796;9.934;2023-07-30T13:22:30;2.00;;;0.88;;
10110;SDS011;5095;49.796;9.934;2023-07-30T13:24:56;1.80;;;0.80;;
10110;SDS011;5095;49.796;9.934;2023-07-30T13:27:22;2.15;;;1.08;;
10110;SDS011;5095;49.796;9.934;2023-07-30T13:29:48;1.77;;;1.02;;
10110;SDS011;5095;49.796;9.934;2023-07-30T13:32:14;1.95;;;0.90;;
10110;SDS011;5095;49.796;9.934;2023-07-30T13:34:41;2.30;;;0.88;;
10110;SDS011;5095;49.796;9.934;2023-07-30T13:37:07;2.40;;;0.93;;
10110;SDS011;5095;49.796;9.934;2023-07-30T13:39:33;2.97;;;1.33;;
10110;SDS011;5095;49.796;9.934;2023-07-30T13:41:59;1.50;;;0.90;;
10110;SDS011;5095;49.796;9.934;2023-07-30T13:44:25;3.00;;;1.13;;
10110;SDS011;5095;49.796;9.934;2023-07-30T13:46:51;2.45;;;1.10;;
10110;SDS011;5095;49.796;9.934;2023-07-30T13:49:17;2.88;;;1.05;;
10110;SDS011;5095;49.796;9.934;2023-07-30T13:51:43;2.92;;;1.00;;
10110;SDS011;5095;49.796;9.934;2023-07-30T13:54:09;2.42;;;1.10;;
10110;SDS011;5095;49.796;9.934;2023-07-30T13:56:35;2.58;;;0.90;;
10110;SDS011;5095;49.796;9.934;2023-07-30T13:59:03;2.20;;;0.93;;
10110;SDS011;5095;49.796;9.934;2023-07-30T14:01:29;2.05;;;0.80;;
10110;SDS011;5095;49.796;9.934;2023-07-30T14:03:55;4.07;;;1.05;;
10110;SDS011;5095;49.796;9.934;2023-07-30T14:06:21;2.45;;;0.85;;
10110;SDS011;5095;49.796;9.934;2023-07-30T14:08:47;2.30;;;1.05;;
10110;SDS011;5095;49.796;9.934;2023-07-30T14:11:13;4.00;;;0.90;;
10110;SDS011;5095;49.796;9.934;2023-07-30T14:13:39;4.43;;;1.35;;
10110;SDS011;5095;49.796;9.934;2023-07-30T14:16:05;5.20;;;1.10;;
10110;SDS011;5095;49.796;9.934;2023-07-30T14:18:32;3.08;;;1.05;;
10110;SDS011;5095;49.796;9.934;2023-07-30T14:20:59;2.65;;;1.05;;
10110;SDS011;5095;49.796;9.934;2023-07-30T14:23:25;2.03;;;1.05;;
10110;SDS011;5095;49.796;9.934;2023-07-30T14:25:51;7.43;;;1.30;;
10110;SDS011;5095;49.796;9.934;2023-07-30T14:28:17;3.55;;;1.15;;
10110;SDS011;5095;49.796;9.934;2023-07-30T14:30:43;3.90;;;1.02;;
10110;SDS011;5095;49.796;9.934;2023-07-30T14:33:10;1.73;;;0.90;;
10110;SDS011;5095;49.796;9.934;2023-07-30T14:35:36;2.78;;;0.90;;
10110;SDS011;5095;49.796;9.934;2023-07-30T14:38:05;2.92;;;1.23;;
10110;SDS011;5095;49.796;9.934;2023-07-30T14:40:32;4.00;;;1.20;;
10110;SDS011;5095;49.796;9.934;2023-07-30T14:42:58;2.97;;;1.20;;
10110;SDS011;5095;49.796;9.934;2023-07-30T14:45:24;2.90;;;1.20;;
10110;SDS011;5095;49.796;9.934;2023-07-30T14:47:50;1.48;;;0.70;;
10110;SDS011;5095;49.796;9.934;2023-07-30T14:50:16;2.78;;;1.10;;
10110;SDS011;5095;49.796;9.934;2023-07-30T14:52:42;3.38;;;1.27;;
10110;SDS011;5095;49.796;9.934;2023-07-30T14:55:08;1.83;;;0.88;;
10110;SDS011;5095;49.796;9.934;2023-07-30T14:57:34;3.10;;;1.60;;
10110;SDS011;5095;49.796;9.934;2023-07-30T15:00:01;6.25;;;1.00;;
10110;SDS011;5095;49.796;9.934;2023-07-30T15:02:27;3.72;;;1.13;;